logo
Search for airport 
image banner adimage banner adimage banner ad
image banner ad

EDROH - Roggenhagen

Located in , Germany

ICAO - ED0521, IATA -

Data provided by Airmate  

General information

Coordinates: N53°40'12" E13°23'54"
Elevation is 150 feet MSL.
 
View others Airports in Saxony

Operational data

Special qualification required
Current time UTC:
Current local time:
Weather at : EDAH - Heringsdorf ( 55 km )
METAR: EDAH 241950Z AUTO 03007KT 010V070 9999 // NCD 14/12 Q1019
TAF: TAF EDAH 241700Z 2418/2503 05008KT CAVOK PROB30 TEMPO 2500/2503 SHRA SCT015 BKN025CB
View NOTAMs / SUP AIP / TFR affecting this airport [VIEW]
Communications frequencies: [VIEW]

Runways:

RWY identifierQFULength (ft)Width (ft)SurfaceLDA (ft)
12110°149966GRASS
30290°149966GRASS

Airport contact information

Address: Germany

Satellite view of EDROH